Calama, Chile
Current Conditions -  °F | °C
As of 3:00 PM on Monday 22 Dec 2014 (Local Time) from SCCF Reporting Station
Clear Clear  
Wind Chill: 75°   Ceiling: Unl
Heat Index: 75°   Visibility: 6mi
Dew Point: 14°   Wind: 21mph
Humidity: 10%   Direction: 260°W
Pressure: 30.21"   Gusts: NA
Location:  22.45°S, 68.92°W
Report Text: SCCF 221900Z 26018KT CAVOK 24/M10 Q1023
Loading
Personal Weather Stations






























Interactive Weather Map New forecast layout! Learn more

10-Day Weather Forecast

Advertisements
Track Severe Weather on mobile